EmailTwitter


Observations de surface / France / LFPO (07149)

Régions: Québec | Canada | États-Unis | Europe | France | UK | Ailleurs
Station
Affichage
Infos & localisation pour LFPO (07149) | Aide pour décoder les METARs

Observations prises le 2018-08-15 à 22H00 UTC à PARIS/ORLY, FR (LFPO)

Température: 17.0 Celsius

Point de rosée: 13.0 Celsius

Humidité relative: 77%

Vents: Calme à 0 km/h ou 0 noeuds.

Pression au niveau moyen de la mer: 101.90 kilopascals.

Observation METAR:

LFPO 152200Z 00000KT CAVOK 17/13 Q1019 NOSIG=